Time;durP1;ratioP1;P1;durP2;ratioP2;P2;SDS_P1;SDS_P2;PMS_P1;PMS_P2;Temp;Humidity;BMP_temperature;BMP_pressure;BME280_temperature;BME280_humidity;BME280_pressure;Samples;Min_cycle;Max_cycle;Signal;HPM_P1;HPM_P2
2023/09/19 00:00:27;;;;;;;17.33;11.20;;;17.50;99.90;;;;;;4386023;28;661024;-65
2023/09/19 00:03:16;;;;;;;14.47;10.53;;;17.60;99.90;;;;;;4384188;28;660781;-65
2023/09/19 00:06:04;;;;;;;18.87;11.47;;;17.60;99.90;;;;;;4385027;28;659833;-65
2023/09/19 00:08:51;;;;;;;14.27;10.20;;;17.70;99.90;;;;;;4407307;28;659837;-65
2023/09/19 00:11:39;;;;;;;15.23;11.33;;;17.70;99.90;;;;;;4386217;28;659491;-65
2023/09/19 00:14:26;;;;;;;15.97;10.80;;;17.70;99.90;;;;;;4406300;28;660514;-65
2023/09/19 00:17:13;;;;;;;15.67;11.33;;;17.70;99.90;;;;;;4393049;28;659763;-65
2023/09/19 00:20:13;;;;;;;19.97;11.10;;;17.70;99.90;;;;;;4413808;28;660195;-65
2023/09/19 00:23:05;;;;;;;17.13;11.37;;;17.60;99.90;;;;;;4382206;28;660337;-65
2023/09/19 00:25:57;;;;;;;16.10;11.57;;;17.60;99.90;;;;;;4362957;28;660545;-65
2023/09/19 00:28:44;;;;;;;17.93;12.40;;;17.60;99.90;;;;;;4393166;28;660015;-65
2023/09/19 00:31:32;;;;;;;17.17;11.13;;;17.60;99.90;;;;;;4407075;28;660047;-65
2023/09/19 00:34:20;;;;;;;16.20;10.63;;;17.60;99.90;;;;;;4388417;28;660935;-64
2023/09/19 00:37:11;;;;;;;16.83;11.30;;;17.70;99.90;;;;;;4397391;28;660270;-66
2023/09/19 00:39:58;;;;;;;20.27;11.30;;;17.70;99.90;;;;;;4392546;28;659591;-65
2023/09/19 00:42:45;;;;;;;14.03;10.20;;;17.70;99.90;;;;;;4403837;28;660711;-66
2023/09/19 00:45:33;;;;;;;17.43;10.83;;;17.80;99.90;;;;;;4383184;28;660347;-65
2023/09/19 00:48:20;;;;;;;15.60;11.23;;;17.90;99.90;;;;;;4405078;28;661481;-65
2023/09/19 00:51:07;;;;;;;16.27;10.57;;;17.90;99.90;;;;;;4387633;28;659406;-65
2023/09/19 00:53:56;;;;;;;14.67;10.47;;;17.90;99.90;;;;;;4413197;28;660524;-65
2023/09/19 00:56:44;;;;;;;15.97;10.83;;;18.00;99.90;;;;;;4389020;28;660078;-64
2023/09/19 00:59:31;;;;;;;18.60;11.27;;;18.00;99.90;;;;;;4403680;28;660315;-65
2023/09/19 01:02:19;;;;;;;15.27;10.17;;;18.00;99.90;;;;;;4386202;28;659600;-66
2023/09/19 01:05:07;;;;;;;17.63;11.07;;;18.00;99.90;;;;;;4406972;28;661225;-65
2023/09/19 01:07:54;;;;;;;17.57;11.00;;;18.00;99.90;;;;;;4383832;28;660966;-65
2023/09/19 01:10:51;;;;;;;17.10;11.17;;;18.00;99.90;;;;;;4406843;28;661099;-65
2023/09/19 01:13:44;;;;;;;15.03;10.63;;;18.00;99.90;;;;;;4391626;28;661165;-65
2023/09/19 01:16:39;;;;;;;13.63;10.37;;;18.00;99.90;;;;;;4381488;28;660790;-64
2023/09/19 01:20:04;;;;;;;17.20;11.20;;;18.00;99.90;;;;;;4380341;28;660075;-65
2023/09/19 01:22:58;;;;;;;19.77;11.37;;;17.90;99.90;;;;;;4383831;28;660669;-65
2023/09/19 01:26:16;;;;;;;18.10;11.20;;;17.90;99.90;;;;;;4382242;28;660119;-65
2023/09/19 01:29:14;;;;;;;14.73;11.03;;;17.90;99.90;;;;;;4384298;28;659708;-65
2023/09/19 01:32:04;;;;;;;15.30;11.03;;;18.00;99.90;;;;;;4385684;28;660195;-65
2023/09/19 01:34:53;;;;;;;15.37;11.03;;;18.00;99.90;;;;;;4381289;28;660422;-65
2023/09/19 01:37:42;;;;;;;17.00;10.80;;;18.00;99.90;;;;;;4379599;28;660441;-65
2023/09/19 01:40:30;;;;;;;19.97;10.70;;;18.10;99.90;;;;;;4390725;28;660236;-65
2023/09/19 01:43:20;;;;;;;17.50;11.80;;;18.10;99.90;;;;;;4396095;28;660137;-65
2023/09/19 01:46:10;;;;;;;21.60;11.83;;;18.20;99.90;;;;;;4389029;28;659684;-65
2023/09/19 01:49:06;;;;;;;16.53;11.70;;;18.10;99.90;;;;;;4390488;28;661203;-65
2023/09/19 01:51:57;;;;;;;16.40;11.50;;;18.10;99.90;;;;;;4367290;28;659860;-65
2023/09/19 01:54:48;;;;;;;23.83;11.93;;;18.10;99.90;;;;;;4383581;28;660752;-64
2023/09/19 01:57:37;;;;;;;19.27;12.40;;;18.10;99.90;;;;;;4383497;28;660851;-64
2023/09/19 02:00:24;;;;;;;22.40;12.20;;;18.00;99.90;;;;;;4386568;28;660829;-65
2023/09/19 02:03:12;;;;;;;19.17;12.37;;;18.10;99.90;;;;;;4404518;28;659354;-65
2023/09/19 02:06:01;;;;;;;22.90;12.40;;;18.10;99.90;;;;;;4382105;28;662496;-64
2023/09/19 02:08:48;;;;;;;17.20;12.00;;;18.10;99.90;;;;;;4386784;28;660070;-65
2023/09/19 02:11:36;;;;;;;20.33;12.27;;;18.00;99.90;;;;;;4404505;28;661274;-65
2023/09/19 02:14:24;;;;;;;19.08;12.95;;;18.00;99.90;;;;;;4383843;28;660113;-65
2023/09/19 02:17:12;;;;;;;20.23;13.40;;;18.00;99.90;;;;;;4401029;28;659828;-66
2023/09/19 02:20:00;;;;;;;17.50;12.63;;;18.00;99.90;;;;;;4385647;28;660357;-65
2023/09/19 02:22:49;;;;;;;17.20;12.60;;;18.00;99.90;;;;;;4388466;28;659618;-65
2023/09/19 02:25:37;;;;;;;18.30;12.63;;;18.00;99.90;;;;;;4404920;28;660360;-65
2023/09/19 02:28:29;;;;;;;18.37;13.10;;;18.00;99.90;;;;;;4382533;28;660506;-65
2023/09/19 02:31:17;;;;;;;18.10;13.27;;;17.90;99.90;;;;;;4382625;28;660115;-65
2023/09/19 02:34:06;;;;;;;18.80;13.33;;;17.90;99.90;;;;;;4382331;28;661417;-65
2023/09/19 02:36:55;;;;;;;18.73;13.40;;;17.90;99.90;;;;;;4389686;28;660242;-65
2023/09/19 02:39:44;;;;;;;17.33;13.00;;;17.90;99.90;;;;;;4386273;28;659755;-65
2023/09/19 02:42:31;;;;;;;20.37;13.53;;;17.90;99.90;;;;;;4405624;28;660233;-65
2023/09/19 02:45:19;;;;;;;21.53;14.80;;;17.90;99.90;;;;;;4385520;28;659602;-65
2023/09/19 02:48:07;;;;;;;20.87;14.67;;;17.90;99.90;;;;;;4407515;28;660814;-65
2023/09/19 02:50:54;;;;;;;20.07;14.80;;;17.80;99.90;;;;;;4384820;28;661372;-66
2023/09/19 02:53:42;;;;;;;20.93;14.93;;;17.80;99.90;;;;;;4403515;28;660021;-65
2023/09/19 02:56:32;;;;;;;23.67;15.90;;;17.80;99.90;;;;;;4384459;28;660476;-66
2023/09/19 02:59:19;;;;;;;21.00;15.43;;;17.70;99.90;;;;;;4378973;28;660934;-67
2023/09/19 03:02:06;;;;;;;30.83;16.17;;;17.70;99.90;;;;;;4399933;28;660306;-66
2023/09/19 03:04:53;;;;;;;27.23;16.33;;;17.70;99.90;;;;;;4388173;28;660231;-66
2023/09/19 03:07:42;;;;;;;30.33;16.33;;;17.70;99.90;;;;;;4402136;28;660577;-65
2023/09/19 03:10:30;;;;;;;29.00;16.13;;;17.60;99.90;;;;;;4381512;28;660429;-66
2023/09/19 03:13:20;;;;;;;29.13;16.80;;;17.60;99.90;;;;;;4381595;28;659603;-66
2023/09/19 03:16:08;;;;;;;20.73;16.07;;;17.60;99.90;;;;;;4406189;28;660010;-67
2023/09/19 03:18:55;;;;;;;27.07;16.50;;;17.60;99.90;;;;;;4405115;28;660975;-66
2023/09/19 03:21:42;;;;;;;25.17;17.00;;;17.50;99.90;;;;;;4399431;28;659382;-66
2023/09/19 03:24:31;;;;;;;25.17;17.30;;;17.60;99.90;;;;;;4411223;28;660721;-66
2023/09/19 03:27:18;;;;;;;26.50;16.50;;;17.60;99.90;;;;;;4384261;28;659675;-66
2023/09/19 03:30:08;;;;;;;26.00;17.70;;;17.60;99.90;;;;;;4404816;28;660908;-65
2023/09/19 03:32:56;;;;;;;28.13;17.47;;;17.60;99.90;;;;;;4388654;28;660374;-65
2023/09/19 03:35:44;;;;;;;31.73;16.70;;;17.50;99.90;;;;;;4384724;28;659855;-66
2023/09/19 03:38:31;;;;;;;24.57;17.10;;;17.50;99.90;;;;;;4400482;28;660538;-65
2023/09/19 03:41:19;;;;;;;29.03;17.87;;;17.50;99.90;;;;;;4386001;28;659833;-65
2023/09/19 03:44:07;;;;;;;30.13;17.30;;;17.40;99.90;;;;;;4402928;28;660878;-65
2023/09/19 03:46:56;;;;;;;27.23;17.30;;;17.30;99.90;;;;;;4383016;28;660331;-67
2023/09/19 03:49:43;;;;;;;26.57;18.20;;;17.30;99.90;;;;;;4383214;28;660186;-65
2023/09/19 03:52:31;;;;;;;47.43;19.27;;;17.30;99.90;;;;;;4400679;28;660437;-65
2023/09/19 03:55:18;;;;;;;27.63;19.13;;;17.20;99.90;;;;;;4381047;28;660296;-66
2023/09/19 03:58:05;;;;;;;31.03;19.47;;;17.20;99.90;;;;;;4404513;28;660086;-66
2023/09/19 04:00:56;;;;;;;31.13;21.23;;;17.10;99.90;;;;;;4387440;28;659673;-67
2023/09/19 04:03:47;;;;;;;27.07;19.87;;;17.20;99.90;;;;;;4392099;28;659861;-66
2023/09/19 04:06:35;;;;;;;28.40;19.63;;;17.20;99.90;;;;;;4384036;28;660116;-65
2023/09/19 04:09:23;;;;;;;32.87;19.57;;;17.30;99.90;;;;;;4384501;28;660447;-66
2023/09/19 04:12:10;;;;;;;28.80;19.27;;;17.30;99.90;;;;;;4405891;28;660993;-65
2023/09/19 04:14:57;;;;;;;28.03;18.77;;;17.30;99.90;;;;;;4399804;28;659524;-66
2023/09/19 04:17:45;;;;;;;29.83;18.97;;;17.30;99.90;;;;;;4414414;28;660218;-66
2023/09/19 04:20:33;;;;;;;25.77;18.70;;;17.40;99.90;;;;;;4405936;28;659331;-66
2023/09/19 04:23:20;;;;;;;30.73;19.23;;;17.40;99.90;;;;;;4384776;28;659955;-66
2023/09/19 04:26:08;;;;;;;28.13;18.27;;;17.40;99.90;;;;;;4385602;28;659898;-66
2023/09/19 04:28:56;;;;;;;26.87;18.47;;;17.40;99.90;;;;;;4408692;28;660164;-66
2023/09/19 04:31:43;;;;;;;27.40;17.97;;;17.40;99.90;;;;;;4382745;28;659673;-66
2023/09/19 04:34:31;;;;;;;30.50;18.30;;;17.40;99.90;;;;;;4411830;28;659391;-66
2023/09/19 04:37:21;;;;;;;26.77;17.83;;;17.40;99.90;;;;;;4382936;28;660621;-65
2023/09/19 04:40:12;;;;;;;35.97;18.83;;;17.40;99.90;;;;;;4384483;28;659759;-66
2023/09/19 04:42:59;;;;;;;25.60;18.63;;;17.30;99.90;;;;;;4385363;28;660426;-65
2023/09/19 04:45:47;;;;;;;27.87;18.57;;;17.30;99.90;;;;;;4403084;28;660307;-65
2023/09/19 04:48:35;;;;;;;25.50;18.77;;;17.40;99.90;;;;;;4387667;28;660826;-65
2023/09/19 04:51:23;;;;;;;27.57;19.83;;;17.40;99.90;;;;;;4391749;28;660924;-67
2023/09/19 04:54:12;;;;;;;31.50;18.57;;;17.40;99.90;;;;;;4406161;28;660623;-65
2023/09/19 04:57:00;;;;;;;27.13;19.23;;;17.40;99.90;;;;;;4387299;28;660526;-65
2023/09/19 04:59:47;;;;;;;34.17;21.73;;;17.40;99.90;;;;;;4406014;28;660961;-66
2023/09/19 05:02:35;;;;;;;28.87;19.67;;;17.50;99.90;;;;;;4412249;28;660794;-65
2023/09/19 05:05:23;;;;;;;28.63;19.80;;;17.50;99.90;;;;;;4399637;28;660732;-66
2023/09/19 05:08:10;;;;;;;26.00;19.27;;;17.50;99.90;;;;;;4405171;28;661768;-65
2023/09/19 05:10:59;;;;;;;25.47;19.00;;;17.50;99.90;;;;;;4391029;28;659771;-66
2023/09/19 05:13:46;;;;;;;28.00;18.40;;;17.50;99.90;;;;;;4408902;28;660513;-66
2023/09/19 05:16:34;;;;;;;25.87;18.83;;;17.60;99.90;;;;;;4388655;28;659719;-65
2023/09/19 05:19:21;;;;;;;32.53;20.70;;;17.60;99.90;;;;;;4406760;28;660804;-65
2023/09/19 05:22:08;;;;;;;32.33;19.23;;;17.60;99.90;;;;;;4381914;28;659673;-65
2023/09/19 05:24:55;;;;;;;29.87;19.30;;;17.60;99.90;;;;;;4410051;28;659518;-65
2023/09/19 05:27:44;;;;;;;72.32;20.58;;;17.60;99.90;;;;;;4386595;28;660551;-66
2023/09/19 05:30:31;;;;;;;28.13;19.80;;;17.60;99.90;;;;;;4402753;28;660865;-65
2023/09/19 05:33:19;;;;;;;30.47;20.40;;;17.50;99.90;;;;;;4385963;28;660657;-66
2023/09/19 05:36:09;;;;;;;29.90;19.00;;;17.50;99.90;;;;;;4409758;28;659160;-66
2023/09/19 05:38:57;;;;;;;21.80;17.27;;;17.50;99.90;;;;;;4381702;28;659720;-66
2023/09/19 05:41:44;;;;;;;24.27;18.17;;;17.50;99.90;;;;;;4373725;28;660244;-65
2023/09/19 05:44:33;;;;;;;23.43;17.50;;;17.40;99.90;;;;;;4410554;28;659261;-67
2023/09/19 05:47:22;;;;;;;23.30;17.70;;;17.50;99.90;;;;;;4389420;28;659947;-65
2023/09/19 05:50:10;;;;;;;24.67;17.00;;;17.50;99.90;;;;;;4378668;28;661441;-65
2023/09/19 05:52:58;;;;;;;22.67;16.97;;;17.50;99.90;;;;;;4392534;28;661384;-66
2023/09/19 05:55:45;;;;;;;26.50;18.73;;;17.50;99.90;;;;;;4411085;28;660496;-66
2023/09/19 05:58:33;;;;;;;24.20;18.57;;;17.40;99.90;;;;;;4387845;28;659692;-67
2023/09/19 06:01:22;;;;;;;27.93;18.47;;;17.40;99.90;;;;;;4402428;28;660965;-66
2023/09/19 06:04:09;;;;;;;24.63;18.93;;;17.40;99.90;;;;;;4385290;28;660737;-65
2023/09/19 06:06:56;;;;;;;26.63;20.50;;;17.40;99.90;;;;;;4402619;28;659894;-65
2023/09/19 06:09:43;;;;;;;25.43;18.83;;;17.40;99.90;;;;;;4386683;28;660103;-65
2023/09/19 06:12:33;;;;;;;23.33;17.37;;;17.30;99.90;;;;;;4407651;28;661265;-67
2023/09/19 06:15:23;;;;;;;25.53;19.10;;;17.30;99.90;;;;;;4380963;28;659730;-66
2023/09/19 06:18:19;;;;;;;20.60;15.93;;;17.30;99.90;;;;;;4382926;28;660498;-67
2023/09/19 06:21:07;;;;;;;24.43;18.07;;;17.30;99.90;;;;;;4389427;28;660353;-65
2023/09/19 06:23:54;;;;;;;24.30;17.67;;;17.30;99.90;;;;;;4377842;28;661403;-67
2023/09/19 06:26:42;;;;;;;21.90;16.97;;;17.40;99.90;;;;;;4410193;28;659487;-66
2023/09/19 06:29:29;;;;;;;20.50;14.67;;;17.30;99.90;;;;;;4383109;28;661848;-67
2023/09/19 06:32:17;;;;;;;18.50;13.67;;;17.40;99.90;;;;;;4400943;28;659968;-66
2023/09/19 06:35:07;;;;;;;16.43;11.80;;;17.30;99.90;;;;;;4384875;28;659754;-66
2023/09/19 06:37:57;;;;;;;14.33;11.40;;;17.30;99.90;;;;;;4381075;28;660817;-66
2023/09/19 06:40:45;;;;;;;15.13;12.13;;;17.30;99.90;;;;;;4388673;28;660257;-66
2023/09/19 06:43:33;;;;;;;17.27;12.93;;;17.30;99.90;;;;;;4400096;28;660315;-66
2023/09/19 06:46:21;;;;;;;21.97;15.03;;;17.30;99.90;;;;;;4408295;28;660519;-66
2023/09/19 06:49:10;;;;;;;22.73;16.27;;;17.20;99.90;;;;;;4389257;28;659754;-65
2023/09/19 06:51:59;;;;;;;23.90;16.10;;;17.20;99.90;;;;;;4388116;28;660236;-67
2023/09/19 06:54:47;;;;;;;23.07;17.63;;;17.30;99.90;;;;;;4403919;28;661375;-65
2023/09/19 06:57:34;;;;;;;25.77;18.37;;;17.30;99.90;;;;;;4378916;28;660719;-67
2023/09/19 07:00:23;;;;;;;27.60;19.00;;;17.30;99.90;;;;;;4404300;28;659452;-66
2023/09/19 07:03:11;;;;;;;29.17;21.43;;;17.30;99.90;;;;;;4383153;28;660091;-67
2023/09/19 07:05:58;;;;;;;36.50;24.70;;;17.30;99.90;;;;;;4382055;28;659922;-65
2023/09/19 07:08:47;;;;;;;37.37;26.03;;;17.30;99.90;;;;;;4413059;28;660938;-65
2023/09/19 07:11:34;;;;;;;47.13;29.17;;;17.10;99.90;;;;;;4386922;28;660004;-66
2023/09/19 07:14:21;;;;;;;41.40;28.50;;;17.20;99.90;;;;;;4406245;28;659784;-65
2023/09/19 07:17:09;;;;;;;49.23;30.50;;;17.10;99.90;;;;;;4383685;28;660598;-66
2023/09/19 07:19:57;;;;;;;47.87;31.03;;;17.10;99.90;;;;;;4408651;28;659947;-65
2023/09/19 07:22:44;;;;;;;51.90;29.93;;;17.10;99.90;;;;;;4390908;28;660610;-65
2023/09/19 07:25:33;;;;;;;47.03;31.60;;;17.10;99.90;;;;;;4405644;28;659869;-66
2023/09/19 07:28:21;;;;;;;52.73;32.47;;;17.10;99.90;;;;;;4386105;28;660386;-66
2023/09/19 07:31:09;;;;;;;54.17;31.60;;;17.10;99.90;;;;;;4383912;28;659797;-67
2023/09/19 07:33:57;;;;;;;48.87;29.30;;;16.90;99.90;;;;;;4406955;28;660083;-66
2023/09/19 07:36:44;;;;;;;49.53;29.40;;;16.90;99.90;;;;;;4392266;28;660889;-66
2023/09/19 07:39:31;;;;;;;46.40;28.33;;;16.90;99.90;;;;;;4409975;28;659890;-67
2023/09/19 07:42:20;;;;;;;48.17;29.17;;;16.90;99.90;;;;;;4387577;28;660122;-66
2023/09/19 07:45:09;;;;;;;41.43;25.17;;;16.80;99.90;;;;;;4393862;28;659380;-69
2023/09/19 07:47:56;;;;;;;38.27;25.70;;;16.80;99.90;;;;;;4409168;28;660375;-69
2023/09/19 07:50:44;;;;;;;34.90;23.43;;;16.60;99.90;;;;;;4390380;28;659538;-70
2023/09/19 07:53:33;;;;;;;36.43;23.83;;;16.60;99.90;;;;;;4410839;28;660106;-69
2023/09/19 07:56:22;;;;;;;37.90;23.27;;;16.60;99.90;;;;;;4381297;28;661117;-69
2023/09/19 07:59:11;;;;;;;34.20;22.70;;;16.60;99.90;;;;;;4387301;28;660800;-69
2023/09/19 08:01:59;;;;;;;34.33;22.43;;;16.60;99.90;;;;;;4388867;28;659792;-68
2023/09/19 08:04:46;;;;;;;38.70;23.50;;;16.60;99.90;;;;;;4414627;28;660139;-69
2023/09/19 08:07:33;;;;;;;43.20;25.77;;;16.50;99.90;;;;;;4394387;28;659845;-69
2023/09/19 08:10:21;;;;;;;47.30;27.73;;;16.50;99.90;;;;;;4401880;28;660213;-68
2023/09/19 08:13:12;;;;;;;56.90;29.93;;;16.60;99.90;;;;;;4390259;28;660078;-69
2023/09/19 08:16:01;;;;;;;54.67;28.90;;;16.60;99.90;;;;;;4385163;28;661098;-68
2023/09/19 08:18:54;;;;;;;59.73;30.67;;;16.60;99.90;;;;;;4377478;28;660591;-69
2023/09/19 08:21:45;;;;;;;52.90;30.37;;;16.60;99.90;;;;;;4380827;28;659372;-69
2023/09/19 08:24:34;;;;;;;58.27;31.87;;;16.70;99.90;;;;;;4365829;28;660061;-70
2023/09/19 08:27:22;;;;;;;66.27;35.57;;;16.70;99.90;;;;;;4404208;28;660270;-69
2023/09/19 08:30:10;;;;;;;61.43;35.13;;;16.70;99.90;;;;;;4387710;28;660266;-68
2023/09/19 08:33:00;;;;;;;61.97;34.43;;;16.70;99.90;;;;;;4386875;28;659700;-70
2023/09/19 08:35:47;;;;;;;58.87;32.67;;;16.70;99.90;;;;;;4405717;28;659980;-70
2023/09/19 08:38:35;;;;;;;57.50;31.03;;;16.80;99.90;;;;;;4384687;28;660833;-68
2023/09/19 08:41:22;;;;;;;47.90;27.53;;;16.80;99.90;;;;;;4393693;28;660486;-70
2023/09/19 08:44:10;;;;;;;43.47;23.97;;;16.80;99.90;;;;;;4409080;28;660351;-69
2023/09/19 08:47:03;;;;;;;42.43;23.53;;;16.80;99.90;;;;;;4404335;28;660535;-70
2023/09/19 08:49:58;;;;;;;44.37;22.60;;;16.90;99.90;;;;;;4382479;28;660406;-68
2023/09/19 08:52:45;;;;;;;31.73;19.70;;;16.90;99.90;;;;;;4387188;28;659907;-68
2023/09/19 08:55:33;;;;;;;35.77;21.43;;;16.90;99.90;;;;;;4392690;28;661146;-70
2023/09/19 08:58:21;;;;;;;34.80;18.97;;;16.90;99.90;;;;;;4402517;28;661001;-68
2023/09/19 09:01:08;;;;;;;30.33;18.47;;;16.90;99.90;;;;;;4391761;28;660455;-69
2023/09/19 09:03:56;;;;;;;32.10;18.43;;;16.90;99.90;;;;;;4400526;28;659767;-69
2023/09/19 09:06:46;;;;;;;28.57;16.97;;;16.80;99.90;;;;;;4384290;28;659778;-69
2023/09/19 09:09:33;;;;;;;24.13;15.23;;;16.80;99.90;;;;;;4392101;28;659980;-69
2023/09/19 09:12:20;;;;;;;27.50;15.40;;;16.70;99.90;;;;;;4403562;28;661250;-69
2023/09/19 09:15:11;;;;;;;26.10;15.13;;;16.70;99.90;;;;;;4387082;28;659638;-70
2023/09/19 09:17:59;;;;;;;26.60;15.17;;;16.80;99.90;;;;;;4386364;28;660016;-68
2023/09/19 09:20:47;;;;;;;23.00;13.57;;;16.70;99.90;;;;;;4409590;28;659782;-68
2023/09/19 09:23:36;;;;;;;23.97;12.47;;;16.70;99.90;;;;;;4382351;28;661552;-68
2023/09/19 09:26:43;;;;;;;23.67;13.03;;;16.70;99.90;;;;;;4387162;28;660418;-69
2023/09/19 09:29:44;;;;;;;21.23;12.80;;;16.70;99.90;;;;;;4386761;28;660078;-69
2023/09/19 09:32:34;;;;;;;18.53;11.33;;;16.70;99.90;;;;;;4380700;28;659630;-69
2023/09/19 09:35:21;;;;;;;21.43;12.23;;;16.70;99.90;;;;;;4386791;28;660172;-68
2023/09/19 09:38:09;;;;;;;21.30;12.20;;;16.60;99.90;;;;;;4389528;28;659734;-68
2023/09/19 09:41:01;;;;;;;17.37;11.57;;;16.70;99.90;;;;;;4408973;28;659629;-69
2023/09/19 09:43:49;;;;;;;16.20;11.07;;;16.70;99.90;;;;;;4382748;28;660402;-68
2023/09/19 09:49:39;;;;;;;17.97;11.00;;;16.60;99.90;;;;;;4399717;28;659643;-71
2023/09/19 09:52:26;;;;;;;18.83;11.17;;;16.70;99.90;;;;;;4401982;28;660482;-68
2023/09/19 09:55:13;;;;;;;19.30;11.80;;;16.70;99.90;;;;;;4386782;28;660455;-70
2023/09/19 09:58:23;;;;;;;18.27;11.40;;;16.70;99.90;;;;;;4399910;28;660612;-69
2023/09/19 10:01:15;;;;;;;15.37;11.07;;;16.80;99.90;;;;;;4381905;28;660040;-68
2023/09/19 10:04:02;;;;;;;18.43;11.70;;;16.70;99.90;;;;;;4376631;28;660045;-68
2023/09/19 10:06:51;;;;;;;18.00;11.80;;;16.70;99.90;;;;;;4384520;28;660142;-68
2023/09/19 10:09:47;;;;;;;17.87;12.07;;;16.70;99.90;;;;;;4389712;28;660269;-68
2023/09/19 10:12:35;;;;;;;21.13;13.43;;;16.90;99.90;;;;;;4386322;28;660384;-69
2023/09/19 10:15:24;;;;;;;17.80;11.93;;;16.90;99.90;;;;;;4398216;28;659921;-71
2023/09/19 10:18:17;;;;;;;16.57;12.10;;;17.00;99.90;;;;;;4400159;28;659417;-70
2023/09/19 10:21:06;;;;;;;21.53;12.73;;;17.00;99.90;;;;;;4358034;28;660566;-68
2023/09/19 10:23:56;;;;;;;19.57;12.80;;;17.00;99.90;;;;;;4381240;28;659736;-70
2023/09/19 10:26:45;;;;;;;26.17;12.90;;;17.00;99.90;;;;;;4384671;28;659799;-68
2023/09/19 10:29:35;;;;;;;18.73;11.73;;;16.90;99.90;;;;;;4403074;28;659809;-69
2023/09/19 10:32:24;;;;;;;18.77;11.53;;;17.00;99.90;;;;;;4360008;28;660118;-70
2023/09/19 10:35:12;;;;;;;21.60;11.07;;;17.00;99.90;;;;;;4406745;28;660067;-69
2023/09/19 10:38:01;;;;;;;21.77;12.27;;;16.90;99.90;;;;;;4381261;28;660992;-69
2023/09/19 10:40:50;;;;;;;23.67;13.97;;;16.90;99.90;;;;;;4387925;28;660788;-69
2023/09/19 10:43:38;;;;;;;18.60;12.50;;;16.90;99.90;;;;;;4389682;28;659490;-70
2023/09/19 10:46:25;;;;;;;23.03;13.47;;;16.90;99.90;;;;;;4408437;28;660901;-68
2023/09/19 10:49:14;;;;;;;19.80;12.43;;;16.90;99.90;;;;;;4389009;28;660054;-70
2023/09/19 10:52:02;;;;;;;21.67;12.37;;;17.00;99.90;;;;;;4412035;28;659677;-69
2023/09/19 10:54:51;;;;;;;20.17;13.17;;;17.00;99.90;;;;;;4389893;28;661183;-69
2023/09/19 10:57:38;;;;;;;19.03;12.57;;;17.10;99.90;;;;;;4384807;28;659564;-68
2023/09/19 11:00:27;;;;;;;17.63;11.97;;;17.00;99.90;;;;;;4407607;28;661626;-69
2023/09/19 11:03:19;;;;;;;19.80;12.40;;;17.00;99.90;;;;;;4391388;28;659455;-70
2023/09/19 11:06:13;;;;;;;21.97;12.50;;;17.00;99.90;;;;;;4378577;28;660981;-68
2023/09/19 11:09:15;;;;;;;19.77;12.67;;;17.00;99.90;;;;;;4380773;28;659999;-69
2023/09/19 11:12:03;;;;;;;19.40;12.37;;;17.10;99.90;;;;;;4362025;28;659513;-70
2023/09/19 11:14:52;;;;;;;20.77;12.37;;;17.00;99.90;;;;;;4404830;28;661142;-69
2023/09/19 11:17:41;;;;;;;21.00;12.70;;;17.00;99.90;;;;;;4389204;28;659927;-69
2023/09/19 11:20:41;;;;;;;20.03;11.67;;;17.00;99.90;;;;;;4378071;28;659536;-69
2023/09/19 11:23:30;;;;;;;20.77;11.13;;;17.00;99.90;;;;;;4383368;28;659745;-69
2023/09/19 11:26:43;;;;;;;19.20;11.53;;;17.00;99.90;;;;;;4383579;28;660059;-71
2023/09/19 11:29:31;;;;;;;19.77;11.37;;;16.90;99.90;;;;;;4378838;28;660041;-70
2023/09/19 11:32:19;;;;;;;18.47;12.23;;;16.90;99.90;;;;;;4380601;28;659612;-70
2023/09/19 11:35:11;;;;;;;23.40;12.43;;;16.90;99.90;;;;;;4400955;28;660236;-70
2023/09/19 11:38:16;;;;;;;20.47;12.67;;;16.80;99.90;;;;;;4358873;28;659980;-71
2023/09/19 11:41:41;;;;;;;20.20;13.50;;;16.80;99.90;;;;;;4368716;28;661143;-70
2023/09/19 11:44:37;;;;;;;28.97;12.67;;;16.90;99.90;;;;;;4356350;28;660049;-69
2023/09/19 11:47:25;;;;;;;25.40;13.97;;;16.80;99.90;;;;;;4379911;28;660426;-69
2023/09/19 11:50:13;;;;;;;21.30;13.07;;;16.90;99.90;;;;;;4401547;28;659830;-69
2023/09/19 11:53:00;;;;;;;23.40;13.87;;;17.00;99.90;;;;;;4408965;28;660202;-69
2023/09/19 11:55:47;;;;;;;20.87;14.33;;;17.00;99.90;;;;;;4396544;28;659454;-70
2023/09/19 11:58:37;;;;;;;24.50;14.83;;;17.00;99.90;;;;;;4400889;28;660494;-68
2023/09/19 12:01:31;;;;;;;25.10;16.10;;;16.90;99.90;;;;;;4379356;28;660941;-69
2023/09/19 12:04:19;;;;;;;23.87;15.00;;;16.90;99.90;;;;;;4359291;28;660102;-68
2023/09/19 12:07:10;;;;;;;22.60;14.13;;;16.80;99.90;;;;;;4404729;28;660571;-69
2023/09/19 12:10:04;;;;;;;27.33;14.33;;;16.90;99.90;;;;;;4363052;28;659604;-69
2023/09/19 12:12:52;;;;;;;22.87;15.43;;;16.90;99.90;;;;;;4386149;28;661260;-67
2023/09/19 12:15:45;;;;;;;24.03;13.40;;;16.90;99.90;;;;;;4377473;28;660922;-69
2023/09/19 12:18:35;;;;;;;22.23;13.90;;;17.00;99.90;;;;;;4377565;28;659949;-69
2023/09/19 12:21:29;;;;;;;23.37;13.77;;;17.00;99.90;;;;;;4388139;28;659536;-71
2023/09/19 12:24:18;;;;;;;22.23;12.73;;;17.10;99.90;;;;;;4381409;28;660971;-69
2023/09/19 12:27:06;;;;;;;20.40;11.95;;;17.20;99.90;;;;;;4382295;28;660861;-69
2023/09/19 12:29:55;;;;;;;21.20;11.70;;;17.20;99.90;;;;;;4384457;28;659806;-70
2023/09/19 12:32:44;;;;;;;20.20;11.20;;;17.30;99.90;;;;;;4391487;28;659634;-71
2023/09/19 12:35:34;;;;;;;17.43;10.97;;;17.30;99.90;;;;;;4411531;28;659344;-68
2023/09/19 12:38:28;;;;;;;20.50;10.53;;;17.20;99.90;;;;;;4383757;28;659944;-69
2023/09/19 12:41:15;;;;;;;19.33;11.03;;;17.40;99.90;;;;;;4389158;28;660369;-70
2023/09/19 12:44:08;;;;;;;22.53;12.23;;;17.30;99.90;;;;;;4396446;28;659982;-70
2023/09/19 12:46:59;;;;;;;22.63;13.17;;;17.40;99.90;;;;;;4385355;28;660691;-69
2023/09/19 12:50:14;;;;;;;22.13;13.80;;;17.30;99.90;;;;;;4386744;28;660084;-68
2023/09/19 12:53:01;;;;;;;24.33;14.83;;;17.40;99.90;;;;;;4388958;28;659835;-69
2023/09/19 12:55:58;;;;;;;24.27;13.93;;;17.50;99.90;;;;;;4394120;28;659843;-70
2023/09/19 12:58:53;;;;;;;26.40;13.43;;;17.60;99.90;;;;;;4386999;28;659313;-68
2023/09/19 13:01:45;;;;;;;23.00;13.77;;;17.60;99.90;;;;;;4387114;28;659942;-69
2023/09/19 13:04:32;;;;;;;23.53;13.93;;;17.50;99.90;;;;;;4385004;28;660030;-69
2023/09/19 13:07:45;;;;;;;24.47;12.93;;;17.50;99.90;;;;;;4383446;28;660354;-69
2023/09/19 13:10:34;;;;;;;18.40;12.63;;;17.50;99.90;;;;;;4362801;28;659851;-70
2023/09/19 13:13:28;;;;;;;26.07;11.20;;;17.50;99.90;;;;;;4409601;28;659847;-69
2023/09/19 13:16:19;;;;;;;17.50;10.37;;;17.50;99.90;;;;;;4382229;28;659605;-70
2023/09/19 13:19:06;;;;;;;16.60;10.27;;;17.40;99.90;;;;;;4383158;28;659485;-69
2023/09/19 13:21:55;;;;;;;16.37;10.03;;;17.30;99.90;;;;;;4383858;28;660334;-70
2023/09/19 13:24:44;;;;;;;14.03;9.60;;;17.40;99.90;;;;;;4385217;28;661686;-69
2023/09/19 13:27:31;;;;;;;15.87;10.30;;;17.30;99.90;;;;;;4401288;28;658874;-69
2023/09/19 13:30:18;;;;;;;15.73;10.00;;;17.50;99.90;;;;;;4387972;28;660474;-70
2023/09/19 13:33:06;;;;;;;20.33;9.23;;;17.60;99.90;;;;;;4403092;28;660907;-69
2023/09/19 13:35:53;;;;;;;15.43;9.90;;;17.50;99.90;;;;;;4382502;28;658659;-71
2023/09/19 13:38:43;;;;;;;17.17;10.33;;;17.50;99.90;;;;;;4400757;28;658639;-70
2023/09/19 13:41:32;;;;;;;16.80;10.13;;;17.60;99.90;;;;;;4377226;28;660770;-70
2023/09/19 13:44:20;;;;;;;14.67;9.47;;;17.80;99.90;;;;;;4372917;28;659986;-70
2023/09/19 13:47:09;;;;;;;15.70;9.77;;;17.70;99.90;;;;;;4403577;28;658798;-70
2023/09/19 13:49:56;;;;;;;15.30;9.57;;;17.80;99.90;;;;;;4381373;28;658649;-70
2023/09/19 13:52:44;;;;;;;16.43;10.13;;;17.90;99.90;;;;;;4380007;28;661362;-70
2023/09/19 13:55:31;;;;;;;20.90;12.00;;;17.90;99.90;;;;;;4390769;28;659806;-70
2023/09/19 13:58:21;;;;;;;19.47;11.90;;;18.00;99.90;;;;;;4375473;28;659809;-70
2023/09/19 14:01:12;;;;;;;17.53;10.70;;;18.20;99.90;;;;;;4366623;28;659943;-70
2023/09/19 14:03:59;;;;;;;21.80;11.40;;;18.40;99.90;;;;;;4367879;28;660097;-69
2023/09/19 14:06:46;;;;;;;19.03;11.23;;;18.70;99.90;;;;;;4399529;28;659988;-69
2023/09/19 14:09:34;;;;;;;16.07;11.10;;;18.90;99.90;;;;;;4383487;28;660038;-68
2023/09/19 14:12:21;;;;;;;14.27;9.97;;;19.00;99.90;;;;;;4401355;28;660746;-68